createdAt,value
2019-02-07T00:02:59.168Z,75.00
2019-02-07T00:07:03.703Z,74.90
2019-02-07T00:11:08.417Z,74.80
2019-02-07T00:15:13.148Z,74.90
2019-02-07T00:19:17.778Z,74.90
2019-02-07T00:23:22.311Z,74.80
2019-02-07T00:27:26.808Z,74.40
2019-02-07T00:31:31.368Z,75.00
2019-02-07T00:35:35.904Z,74.90
2019-02-07T00:39:40.444Z,74.20
2019-02-07T00:43:45.013Z,74.50
2019-02-07T00:47:50.111Z,74.60
2019-02-07T00:51:54.644Z,74.80
2019-02-07T00:55:59.169Z,74.60
2019-02-07T01:00:04.002Z,74.80
2019-02-07T01:04:08.605Z,74.40
2019-02-07T01:08:13.122Z,75.00
2019-02-07T01:12:17.691Z,74.40
2019-02-07T01:16:22.217Z,74.70
2019-02-07T01:20:26.858Z,74.90
2019-02-07T01:24:31.755Z,74.70
2019-02-07T01:28:36.326Z,74.90
2019-02-07T01:32:40.882Z,74.80
2019-02-07T01:36:45.428Z,74.90
2019-02-07T01:40:49.960Z,75.00
2019-02-07T01:44:54.503Z,75.00
2019-02-07T01:48:59.029Z,75.00
2019-02-07T01:53:03.575Z,74.90
2019-02-07T01:57:08.107Z,75.00
2019-02-07T02:01:12.628Z,75.10
2019-02-07T02:05:18.016Z,75.10
2019-02-07T02:09:22.967Z,75.30
2019-02-07T02:13:27.507Z,75.00
2019-02-07T02:17:32.016Z,75.30
2019-02-07T02:21:36.539Z,75.10
2019-02-07T02:25:41.108Z,75.10
2019-02-07T02:29:45.640Z,75.20
2019-02-07T02:33:50.172Z,73.90
2019-02-07T02:37:54.664Z,74.90
2019-02-07T02:41:59.211Z,75.30
2019-02-07T02:46:03.773Z,75.30
2019-02-07T02:50:10.231Z,75.10
2019-02-07T02:54:36.919Z,75.30
2019-02-07T02:58:41.498Z,75.20
2019-02-07T03:03:03.669Z,75.40
2019-02-07T03:07:29.968Z,75.20
2019-02-07T03:11:53.650Z,75.00
2019-02-07T03:16:17.424Z,75.10
2019-02-07T03:20:41.007Z,75.00
2019-02-07T03:25:14.942Z,74.20
2019-02-07T03:29:44.759Z,74.40
2019-02-07T03:34:17.061Z,74.10
2019-02-07T03:38:42.875Z,73.20
2019-02-07T03:43:15.604Z,73.50
2019-02-07T03:47:32.575Z,73.60
2019-02-07T03:52:14.778Z,73.20
2019-02-07T03:56:50.125Z,73.30
2019-02-07T04:01:05.654Z,72.70
2019-02-07T04:05:29.270Z,73.00
2019-02-07T04:10:04.835Z,72.90
2019-02-07T04:14:27.235Z,72.80
2019-02-07T04:18:42.113Z,72.90
2019-02-07T04:23:05.584Z,73.30
2019-02-07T04:27:32.852Z,73.00
2019-02-07T04:32:08.435Z,73.80
2019-02-07T04:36:38.252Z,73.70
2019-02-07T04:40:56.263Z,74.20
2019-02-07T04:45:35.204Z,74.60
2019-02-07T04:49:52.366Z,74.50
2019-02-07T04:54:14.917Z,74.20
2019-02-07T04:58:37.568Z,74.30
2019-02-07T05:03:00.341Z,74.30
2019-02-07T05:07:26.635Z,74.00
2019-02-07T05:11:48.980Z,73.90
2019-02-07T05:16:24.435Z,73.90
2019-02-07T05:20:48.785Z,73.90
2019-02-07T05:25:21.539Z,73.90
2019-02-07T05:34:16.295Z,73.20
2019-02-07T05:38:43.235Z,73.80
2019-02-07T05:43:14.619Z,73.90
2019-02-07T05:47:44.183Z,73.90
2019-02-07T05:52:16.950Z,74.00
2019-02-07T05:56:35.707Z,74.00
2019-02-07T06:00:49.766Z,73.90
2019-02-07T06:05:13.197Z,73.80
2019-02-07T06:09:51.775Z,73.40
2019-02-07T06:14:27.843Z,73.50
2019-02-07T06:19:06.483Z,73.80
2019-02-07T06:23:33.269Z,73.60
2019-02-07T06:27:53.839Z,73.70
2019-02-07T06:32:16.332Z,73.90
2019-02-07T06:36:54.973Z,73.50
2019-02-07T06:41:36.631Z,73.50
2019-02-07T06:46:02.885Z,73.60
2019-02-07T06:55:08.412Z,72.70
2019-02-07T06:59:37.891Z,73.00
2019-02-07T07:04:16.623Z,73.70
2019-02-07T07:08:49.166Z,73.30
2019-02-07T07:13:08.802Z,73.60
2019-02-07T07:17:31.136Z,73.60
2019-02-07T07:22:10.323Z,73.60
2019-02-07T07:26:36.940Z,72.80
2019-02-07T07:30:58.998Z,73.70
2019-02-07T07:35:22.463Z,73.60
2019-02-07T07:39:45.930Z,73.80
2019-02-07T07:44:15.508Z,74.00
2019-02-07T07:48:38.114Z,74.10
2019-02-07T07:52:54.994Z,73.90
2019-02-07T07:57:18.491Z,74.00
2019-02-07T08:01:54.375Z,75.10
2019-02-07T08:06:16.618Z,74.60
2019-02-07T08:10:49.398Z,75.00
2019-02-07T08:15:31.180Z,75.20
2019-02-07T08:20:00.850Z,75.20
2019-02-07T08:24:31.337Z,75.20
2019-02-07T08:28:50.876Z,74.90
2019-02-07T08:33:20.935Z,74.90
2019-02-07T08:37:59.819Z,75.10
2019-02-07T08:42:26.758Z,75.10
2019-02-07T08:46:50.922Z,75.20
2019-02-07T08:51:13.589Z,75.10
2019-02-07T08:55:40.122Z,75.00
2019-02-07T09:00:00.184Z,75.00
2019-02-07T09:04:26.908Z,75.70
2019-02-07T09:08:56.211Z,76.00
2019-02-07T09:13:32.055Z,76.40
2019-02-07T09:17:54.201Z,76.90
2019-02-07T09:22:17.403Z,77.30
2019-02-07T09:26:39.667Z,77.60
2019-02-07T09:31:02.037Z,77.60
2019-02-07T09:35:26.123Z,77.90
2019-02-07T09:39:48.880Z,78.20
2019-02-07T09:44:21.197Z,78.40
2019-02-07T09:48:43.671Z,78.70
2019-02-07T09:52:59.576Z,78.80
2019-02-07T09:57:13.688Z,79.20
2019-02-07T10:06:07.703Z,78.90
2019-02-07T10:10:32.223Z,79.70
2019-02-07T10:15:04.852Z,79.80
2019-02-07T10:19:40.404Z,79.50
2019-02-07T10:23:58.212Z,79.80
2019-02-07T10:28:21.689Z,79.90
2019-02-07T10:32:43.874Z,80.00
2019-02-07T10:37:07.367Z,80.00
2019-02-07T10:41:33.582Z,80.00
2019-02-07T10:45:46.275Z,79.90
2019-02-07T10:50:08.639Z,80.10
2019-02-07T10:54:32.766Z,79.70
2019-02-07T10:58:48.931Z,79.60
2019-02-07T11:03:30.968Z,79.80
2019-02-07T11:08:14.053Z,79.70
2019-02-07T11:12:56.999Z,79.30
2019-02-07T11:17:18.740Z,79.80
2019-02-07T11:21:42.623Z,79.90
2019-02-07T11:26:05.075Z,80.20
2019-02-07T11:30:30.903Z,79.80
2019-02-07T11:35:08.435Z,79.60
2019-02-07T11:39:35.008Z,79.50
2019-02-07T11:43:57.414Z,79.50
2019-02-07T11:48:28.053Z,79.60
2019-02-07T11:52:55.443Z,80.00
2019-02-07T11:57:17.584Z,79.90
2019-02-07T12:02:08.714Z,79.90
2019-02-07T12:06:24.188Z,79.70
2019-02-07T12:10:47.682Z,79.50
2019-02-07T12:15:11.435Z,79.20
2019-02-07T12:19:40.911Z,79.20
2019-02-07T12:24:13.294Z,79.10
2019-02-07T12:28:42.021Z,79.10
2019-02-07T12:33:05.507Z,77.70
2019-02-07T12:37:31.792Z,78.00
2019-02-07T12:41:54.284Z,77.80
2019-02-07T12:46:16.643Z,77.10
2019-02-07T12:50:40.785Z,77.00
2019-02-07T12:55:19.360Z,76.00
2019-02-07T12:59:48.988Z,74.70
2019-02-07T13:04:11.014Z,74.80
2019-02-07T13:08:34.338Z,74.90
2019-02-07T13:13:04.310Z,74.10
2019-02-07T13:17:31.225Z,73.70
2019-02-07T13:21:52.858Z,71.90
2019-02-07T13:26:19.523Z,72.60
2019-02-07T13:30:45.811Z,73.20
2019-02-07T13:35:15.189Z,71.90
2019-02-07T13:39:44.520Z,71.30
2019-02-07T13:44:17.239Z,70.80
2019-02-07T13:48:27.541Z,71.90
2019-02-07T13:52:57.334Z,70.10
2019-02-07T13:57:16.610Z,70.10
2019-02-07T14:01:40.115Z,70.00
2019-02-07T14:06:15.971Z,68.70
2019-02-07T14:10:42.206Z,68.80
2019-02-07T14:15:05.692Z,70.10
2019-02-07T14:19:29.170Z,70.10
2019-02-07T14:23:51.435Z,68.80
2019-02-07T14:28:17.971Z,69.60
2019-02-07T14:32:50.521Z,70.40
2019-02-07T14:37:15.180Z,70.00
2019-02-07T14:41:33.435Z,68.30
2019-02-07T14:45:56.894Z,69.30
2019-02-07T14:50:01.698Z,68.90
2019-02-07T14:54:06.351Z,70.10
2019-02-07T14:58:10.895Z,69.10
2019-02-07T15:02:15.565Z,69.00
2019-02-07T15:06:20.955Z,69.60
2019-02-07T15:10:25.643Z,69.60
2019-02-07T15:14:30.187Z,69.80
2019-02-07T15:18:34.779Z,69.90
2019-02-07T15:22:39.325Z,69.40
2019-02-07T15:26:43.893Z,69.40
2019-02-07T15:30:55.646Z,70.00
2019-02-07T15:35:00.513Z,69.80
2019-02-07T15:39:08.164Z,69.10
2019-02-07T15:43:12.940Z,70.20
2019-02-07T15:47:17.474Z,69.40
2019-02-07T15:51:22.303Z,70.10
2019-02-07T15:55:26.947Z,70.00
2019-02-07T15:59:33.546Z,70.00
2019-02-07T16:03:44.224Z,69.80
2019-02-07T16:07:48.775Z,70.00
2019-02-07T16:11:53.304Z,70.40
2019-02-07T16:15:58.026Z,70.40
2019-02-07T16:20:02.576Z,70.00
2019-02-07T16:24:07.860Z,70.60
2019-02-07T16:28:12.369Z,70.00
2019-02-07T16:32:17.051Z,70.20
2019-02-07T16:36:21.714Z,70.10
2019-02-07T16:40:26.656Z,69.30
2019-02-07T16:44:31.699Z,69.60
2019-02-07T16:48:36.195Z,69.60
2019-02-07T16:52:40.758Z,69.70
2019-02-07T16:56:45.306Z,70.10
2019-02-07T17:00:49.893Z,69.80
2019-02-07T17:04:54.375Z,70.10
2019-02-07T17:08:59.140Z,69.90
2019-02-07T17:13:04.783Z,70.50
2019-02-07T17:17:09.657Z,70.30
2019-02-07T17:21:14.237Z,70.20
2019-02-07T17:25:18.950Z,70.10
2019-02-07T17:29:23.492Z,70.00
2019-02-07T17:33:28.142Z,69.90
2019-02-07T17:37:32.680Z,69.80
2019-02-07T17:41:37.256Z,69.20
2019-02-07T17:45:41.755Z,70.10
2019-02-07T17:49:46.336Z,70.00
2019-02-07T17:53:50.894Z,69.80
2019-02-07T17:57:55.436Z,69.50
2019-02-07T18:02:00.282Z,70.10
2019-02-07T18:06:06.580Z,69.90
2019-02-07T18:10:11.554Z,69.90
2019-02-07T18:14:16.132Z,69.50
2019-02-07T18:18:20.784Z,70.40
2019-02-07T18:22:25.266Z,70.00
2019-02-07T18:26:29.814Z,69.20
2019-02-07T18:30:34.362Z,69.60
2019-02-07T18:34:38.922Z,69.30
2019-02-07T18:38:43.456Z,69.60
2019-02-07T18:42:47.963Z,69.80
2019-02-07T18:46:54.283Z,69.10
2019-02-07T18:50:58.905Z,69.30
2019-02-07T18:55:03.922Z,69.70
2019-02-07T18:59:08.538Z,69.60
2019-02-07T19:03:13.120Z,69.70
2019-02-07T19:07:17.638Z,70.20
2019-02-07T19:11:22.185Z,69.90
2019-02-07T19:15:35.951Z,69.90
2019-02-07T19:19:40.507Z,69.90
2019-02-07T19:23:45.095Z,70.10
2019-02-07T19:27:49.628Z,70.50
2019-02-07T19:31:54.472Z,70.40
2019-02-07T19:35:59.020Z,70.90
2019-02-07T19:40:04.255Z,70.80
2019-02-07T19:44:08.759Z,71.00
2019-02-07T19:48:13.302Z,71.10
2019-02-07T19:52:17.848Z,71.60
2019-02-07T19:56:22.720Z,72.30
2019-02-07T20:00:29.447Z,73.20
2019-02-07T20:04:33.941Z,73.00
2019-02-07T20:08:38.484Z,73.50
2019-02-07T20:12:43.620Z,73.50
2019-02-07T20:16:48.451Z,74.10
2019-02-07T20:20:52.980Z,74.20
2019-02-07T20:25:10.251Z,74.40
2019-02-07T20:29:14.778Z,75.10
2019-02-07T20:33:19.326Z,75.20
2019-02-07T20:37:23.864Z,74.80
2019-02-07T20:41:28.420Z,74.30
2019-02-07T20:45:36.143Z,73.70
2019-02-07T20:49:40.673Z,73.60
2019-02-07T20:53:45.255Z,73.30
2019-02-07T20:57:49.883Z,73.00
2019-02-07T21:01:54.428Z,72.80
2019-02-07T21:05:58.983Z,72.90
2019-02-07T21:10:04.356Z,73.00
2019-02-07T21:14:08.919Z,72.90
2019-02-07T21:18:13.659Z,72.80
2019-02-07T21:22:18.162Z,72.80
2019-02-07T21:26:22.696Z,73.20
2019-02-07T21:30:29.182Z,72.80
2019-02-07T21:34:33.699Z,73.00
2019-02-07T21:38:38.194Z,72.90
2019-02-07T21:42:42.716Z,72.80
2019-02-07T21:46:47.272Z,73.10
2019-02-07T21:50:51.823Z,73.30
2019-02-07T21:54:56.349Z,73.00
2019-02-07T21:59:00.903Z,73.00
2019-02-07T22:03:07.474Z,73.50
2019-02-07T22:07:12.008Z,73.30
2019-02-07T22:11:19.615Z,73.40
2019-02-07T22:15:24.392Z,73.80
2019-02-07T22:19:28.914Z,73.80
2019-02-07T22:23:33.434Z,74.10
2019-02-07T22:27:37.995Z,73.80
2019-02-07T22:31:42.538Z,73.80
2019-02-07T22:35:47.060Z,73.90
2019-02-07T22:39:51.576Z,74.80
2019-02-07T22:43:56.195Z,74.70
2019-02-07T22:48:00.726Z,75.00
2019-02-07T22:52:05.856Z,74.50
2019-02-07T22:56:10.449Z,74.50
2019-02-07T23:01:05.104Z,74.50
2019-02-07T23:05:09.606Z,74.60
2019-02-07T23:09:17.574Z,74.70
2019-02-07T23:13:22.131Z,75.00
2019-02-07T23:17:26.693Z,75.00
2019-02-07T23:21:31.526Z,75.00
2019-02-07T23:25:36.070Z,75.30
2019-02-07T23:29:40.611Z,74.90
2019-02-07T23:33:45.163Z,74.80
2019-02-07T23:37:49.680Z,75.10
2019-02-07T23:41:54.179Z,75.10
2019-02-07T23:45:58.733Z,75.30
2019-02-07T23:50:03.248Z,75.10
2019-02-07T23:54:07.815Z,75.10
2019-02-07T23:58:12.343Z,74.90
